Time;durP1;ratioP1;P1;durP2;ratioP2;P2;SDS_P1;SDS_P2;PMS_P1;PMS_P2;Temp;Humidity;BMP_temperature;BMP_pressure;BME280_temperature;BME280_humidity;BME280_pressure;Samples;Min_cycle;Max_cycle;Signal;HPM_P1;HPM_P2
2022/10/24 00:00:57;;;;;;;40.80;38.43;;;18.80;94.20;;;;;;5048698;28;20261;-70
2022/10/24 00:03:25;;;;;;;37.00;34.83;;;18.80;94.30;;;;;;5063532;28;20700;-71
2022/10/24 00:05:52;;;;;;;39.70;37.50;;;18.80;94.20;;;;;;5071491;28;20241;-77
2022/10/24 00:08:20;;;;;;;37.80;35.40;;;18.70;94.20;;;;;;5066856;28;20190;-74
2022/10/24 00:10:49;;;;;;;40.93;38.40;;;18.70;94.20;;;;;;5072148;28;20190;-79
2022/10/24 00:13:18;;;;;;;40.23;37.63;;;18.70;94.30;;;;;;5071932;28;20199;-77
2022/10/24 00:15:48;;;;;;;39.87;37.17;;;18.60;94.10;;;;;;5063314;28;20186;-70
2022/10/24 00:18:16;;;;;;;42.00;39.10;;;18.50;94.20;;;;;;5072006;28;20183;-71
2022/10/24 00:20:44;;;;;;;44.53;41.27;;;18.50;94.30;;;;;;5071520;28;20179;-78
2022/10/24 00:23:12;;;;;;;45.77;41.63;;;18.60;94.30;;;;;;5072023;28;20192;-69
2022/10/24 00:25:39;;;;;;;47.10;44.00;;;18.70;94.40;;;;;;5072419;28;20281;-70
2022/10/24 00:28:07;;;;;;;48.67;45.60;;;18.80;94.40;;;;;;5072188;28;20179;-71
2022/10/24 00:30:34;;;;;;;50.50;47.27;;;18.80;94.30;;;;;;5071069;28;20202;-72
2022/10/24 00:33:02;;;;;;;47.67;44.40;;;19.00;94.30;;;;;;5071480;28;20179;-81
2022/10/24 00:35:30;;;;;;;49.53;46.27;;;18.90;94.10;;;;;;5072320;28;20183;-72
2022/10/24 00:37:57;;;;;;;49.03;45.33;;;19.00;94.20;;;;;;5071487;28;20171;-71
2022/10/24 00:40:24;;;;;;;49.37;45.93;;;19.00;94.20;;;;;;5073016;28;20660;-70
2022/10/24 00:42:53;;;;;;;48.57;44.87;;;18.90;94.10;;;;;;5072611;28;20214;-71
2022/10/24 00:45:49;;;;;;;54.07;50.33;;;19.00;94.30;;;;;;5072014;28;20254;-74
2022/10/24 00:48:33;;;;;;;51.60;47.73;;;18.90;94.10;;;;;;5072758;28;20262;-71
2022/10/24 00:51:27;;;;;;;51.50;47.50;;;19.00;94.10;;;;;;5062014;28;20186;-74
2022/10/24 00:54:05;;;;;;;49.60;46.53;;;18.90;94.10;;;;;;5072629;28;20183;-79
2022/10/24 00:56:37;;;;;;;56.97;52.97;;;19.00;94.10;;;;;;5072818;28;20174;-80
2022/10/24 00:59:07;;;;;;;58.07;53.73;;;19.00;94.10;;;;;;5066778;28;20507;-73
2022/10/24 01:01:36;;;;;;;55.07;50.90;;;19.10;94.10;;;;;;5068453;28;20641;-75
2022/10/24 01:04:03;;;;;;;56.40;52.70;;;19.00;94.00;;;;;;5074108;28;20298;-75
2022/10/24 01:06:48;;;;;;;57.20;53.03;;;19.20;93.90;;;;;;5086859;28;20657;-73
2022/10/24 01:09:16;;;;;;;53.80;49.50;;;19.00;93.80;;;;;;5076605;28;20221;-73
2022/10/24 01:11:59;;;;;;;58.67;54.23;;;19.10;93.90;;;;;;5079376;28;20193;-72
2022/10/24 01:14:32;;;;;;;56.33;52.23;;;19.30;93.90;;;;;;5083978;28;20198;-76
2022/10/24 01:17:24;;;;;;;59.20;54.37;;;19.20;93.50;;;;;;5081627;28;20190;-75
2022/10/24 01:20:00;;;;;;;55.87;51.13;;;19.10;93.60;;;;;;5084262;28;20183;-70
2022/10/24 01:22:37;;;;;;;58.47;53.50;;;19.20;93.60;;;;;;5077598;28;20667;-73
2022/10/24 01:25:14;;;;;;;58.63;53.77;;;19.10;93.60;;;;;;5082424;28;20239;-71
2022/10/24 01:28:08;;;;;;;61.07;56.37;;;19.20;93.60;;;;;;5080862;28;20181;-71
2022/10/24 01:30:49;;;;;;;65.07;60.03;;;19.20;93.50;;;;;;5037402;28;20239;-72
2022/10/24 01:33:31;;;;;;;65.33;59.97;;;19.30;93.50;;;;;;5078744;28;20183;-71
2022/10/24 01:36:15;;;;;;;66.70;61.03;;;19.40;93.40;;;;;;5060292;28;20171;-73
2022/10/24 01:38:57;;;;;;;64.50;59.23;;;19.50;93.20;;;;;;5078940;28;20648;-71
2022/10/24 01:41:27;;;;;;;64.30;59.13;;;19.50;93.00;;;;;;5078778;28;20237;-71
2022/10/24 01:44:01;;;;;;;62.10;57.07;;;19.50;93.00;;;;;;5076009;28;20261;-72
2022/10/24 01:46:35;;;;;;;55.33;51.27;;;19.50;92.70;;;;;;5082476;28;20644;-71
2022/10/24 01:49:25;;;;;;;58.93;54.57;;;19.60;92.80;;;;;;5079755;28;20187;-72
2022/10/24 01:51:58;;;;;;;62.40;57.67;;;19.70;92.50;;;;;;5073916;28;20187;-72
2022/10/24 01:54:25;;;;;;;63.47;58.60;;;19.90;92.40;;;;;;5082647;28;20269;-72
2022/10/24 01:56:53;;;;;;;58.83;54.47;;;20.00;92.20;;;;;;5075999;28;20191;-72
2022/10/24 01:59:29;;;;;;;56.33;52.00;;;20.10;91.80;;;;;;5086214;28;20179;-72
2022/10/24 02:02:17;;;;;;;45.43;41.83;;;20.10;91.60;;;;;;5078174;28;20179;-72
2022/10/24 02:04:51;;;;;;;40.73;37.07;;;20.10;91.50;;;;;;5071918;28;20207;-72
2022/10/24 02:07:21;;;;;;;40.07;36.70;;;20.10;91.30;;;;;;5078692;28;20549;-72
2022/10/24 02:09:53;;;;;;;39.77;36.60;;;20.10;91.10;;;;;;5092303;28;20184;-72
2022/10/24 02:12:22;;;;;;;39.10;35.87;;;20.20;91.00;;;;;;5080766;28;20834;-72
2022/10/24 02:14:56;;;;;;;31.47;29.13;;;20.30;90.80;;;;;;5078660;28;20670;-71
2022/10/24 02:17:23;;;;;;;25.67;23.13;;;20.40;90.60;;;;;;5075830;28;20645;-72
2022/10/24 02:19:51;;;;;;;23.87;21.33;;;20.40;90.00;;;;;;5078765;28;20183;-71
2022/10/24 02:22:36;;;;;;;20.30;18.10;;;20.60;90.10;;;;;;5062289;28;20658;-72
2022/10/24 02:25:11;;;;;;;18.93;14.70;;;20.70;89.60;;;;;;5075348;28;20203;-72
2022/10/24 02:27:54;;;;;;;21.93;17.40;;;20.80;89.10;;;;;;5086791;28;20182;-72
2022/10/24 02:30:25;;;;;;;26.90;13.50;;;21.20;89.30;;;;;;5073381;28;20227;-72
2022/10/24 02:32:55;;;;;;;16.77;7.10;;;21.50;88.30;;;;;;5083348;28;20526;-72
2022/10/24 02:35:41;;;;;;;17.87;7.53;;;21.50;87.10;;;;;;5085202;28;20187;-72
2022/10/24 02:38:31;;;;;;;14.17;5.63;;;21.30;86.50;;;;;;5071293;28;20711;-72
2022/10/24 02:41:02;;;;;;;12.83;4.87;;;21.20;87.50;;;;;;5077682;28;20195;-71
2022/10/24 02:43:31;;;;;;;22.70;4.97;;;21.20;87.20;;;;;;5072943;28;20222;-72
2022/10/24 02:45:59;;;;;;;16.27;4.40;;;21.20;86.50;;;;;;5078574;28;20187;-72
2022/10/24 02:48:33;;;;;;;8.47;3.90;;;21.20;86.60;;;;;;5075642;28;20183;-72
2022/10/24 02:51:02;;;;;;;13.60;3.83;;;21.30;85.70;;;;;;5081948;28;20311;-72
2022/10/24 02:53:30;;;;;;;17.90;4.20;;;21.30;86.00;;;;;;5068891;28;20213;-72
2022/10/24 02:55:57;;;;;;;9.13;3.50;;;21.30;85.90;;;;;;5081260;28;20673;-72
2022/10/24 02:58:25;;;;;;;13.67;3.70;;;21.40;86.00;;;;;;5082129;28;20198;-72
2022/10/24 03:00:52;;;;;;;10.83;3.50;;;21.30;86.00;;;;;;5085219;28;20247;-72
2022/10/24 03:03:21;;;;;;;15.90;4.00;;;21.20;86.20;;;;;;5078194;28;20187;-71
2022/10/24 03:05:49;;;;;;;12.63;3.37;;;21.10;86.90;;;;;;5074893;28;20624;-72
2022/10/24 03:08:16;;;;;;;13.30;4.20;;;20.90;86.50;;;;;;5080239;28;20190;-72
2022/10/24 03:10:43;;;;;;;9.03;4.43;;;20.80;87.30;;;;;;5077691;28;20190;-73
2022/10/24 03:13:11;;;;;;;19.60;5.13;;;20.80;87.20;;;;;;5087770;28;20892;-73
2022/10/24 03:15:38;;;;;;;19.77;4.90;;;20.90;87.00;;;;;;5081092;28;20233;-73
2022/10/24 03:18:06;;;;;;;13.77;3.90;;;21.00;87.00;;;;;;5076977;28;20179;-72
2022/10/24 03:20:33;;;;;;;12.80;3.80;;;21.10;87.10;;;;;;5079849;28;20657;-72
2022/10/24 03:23:01;;;;;;;12.43;3.60;;;21.30;87.00;;;;;;5077310;28;20179;-73
2022/10/24 03:25:28;;;;;;;10.33;3.23;;;21.30;86.00;;;;;;5073148;28;20264;-74
2022/10/24 03:27:55;;;;;;;12.63;3.77;;;21.30;85.60;;;;;;5078821;28;20182;-73
2022/10/24 03:30:23;;;;;;;16.17;3.90;;;21.30;85.50;;;;;;5076866;28;20187;-75
2022/10/24 03:32:50;;;;;;;13.40;3.40;;;21.40;86.10;;;;;;5083230;28;20183;-73
2022/10/24 03:35:18;;;;;;;12.13;3.90;;;21.30;86.20;;;;;;5074564;28;20194;-74
2022/10/24 03:37:45;;;;;;;16.20;4.10;;;21.40;86.80;;;;;;5076122;28;20179;-73
2022/10/24 03:40:12;;;;;;;11.03;3.80;;;21.60;87.50;;;;;;5079143;28;20195;-73
2022/10/24 03:42:40;;;;;;;11.70;3.97;;;21.70;86.50;;;;;;5070800;28;20629;-74
2022/10/24 03:45:08;;;;;;;11.87;4.10;;;21.60;85.90;;;;;;5070734;28;20219;-72
2022/10/24 03:47:35;;;;;;;7.10;3.73;;;21.40;87.20;;;;;;5079533;28;20594;-74
2022/10/24 03:50:03;;;;;;;9.60;4.10;;;21.30;87.40;;;;;;5068748;28;20603;-74
2022/10/24 03:52:30;;;;;;;10.17;4.47;;;21.00;87.70;;;;;;5075669;28;20213;-72
2022/10/24 03:54:58;;;;;;;9.20;4.00;;;20.90;88.60;;;;;;5076476;28;20179;-72
2022/10/24 03:57:25;;;;;;;12.07;4.90;;;20.80;87.80;;;;;;5076258;28;20197;-73
2022/10/24 03:59:52;;;;;;;10.60;4.73;;;20.80;87.70;;;;;;5070434;28;20189;-71
2022/10/24 04:02:20;;;;;;;10.53;5.07;;;20.90;87.70;;;;;;5078899;28;20186;-72
2022/10/24 04:04:47;;;;;;;9.40;4.93;;;21.00;87.70;;;;;;5078420;28;20677;-72
2022/10/24 04:07:14;;;;;;;9.83;4.57;;;21.00;87.70;;;;;;5075120;28;20184;-72
2022/10/24 04:09:42;;;;;;;9.97;4.10;;;21.00;87.50;;;;;;5069393;28;20536;-72
2022/10/24 04:12:09;;;;;;;9.03;4.27;;;20.80;87.30;;;;;;5074833;28;20187;-72
2022/10/24 04:14:37;;;;;;;12.13;4.40;;;20.80;87.20;;;;;;5068462;28;20181;-72
2022/10/24 04:17:04;;;;;;;12.60;3.80;;;20.90;87.00;;;;;;5074294;28;20182;-73
2022/10/24 04:19:32;;;;;;;8.83;3.93;;;20.80;86.90;;;;;;5074266;28;20305;-73
2022/10/24 04:21:59;;;;;;;7.23;4.30;;;20.80;87.00;;;;;;5073135;28;20229;-72
2022/10/24 04:24:26;;;;;;;8.50;4.70;;;20.80;87.20;;;;;;5073617;28;20292;-72
2022/10/24 04:26:54;;;;;;;8.07;4.60;;;20.80;87.40;;;;;;5072263;28;20179;-72
2022/10/24 04:29:21;;;;;;;12.50;4.67;;;20.80;87.50;;;;;;5075972;28;20177;-72
2022/10/24 04:31:48;;;;;;;11.07;5.03;;;20.80;87.70;;;;;;5078190;28;20704;-72
2022/10/24 04:34:16;;;;;;;9.43;5.20;;;20.80;87.60;;;;;;5074407;28;20232;-72
2022/10/24 04:36:43;;;;;;;9.60;5.33;;;20.80;87.80;;;;;;5079855;28;20175;-73
2022/10/24 04:39:11;;;;;;;9.43;5.70;;;20.80;88.20;;;;;;5069660;28;20186;-72
2022/10/24 04:41:38;;;;;;;13.83;6.03;;;20.80;88.50;;;;;;5068194;28;20194;-72
2022/10/24 04:44:06;;;;;;;12.77;6.00;;;20.80;88.70;;;;;;5072936;28;20227;-72
2022/10/24 04:46:34;;;;;;;11.33;6.20;;;20.70;89.20;;;;;;5060259;28;20658;-72
2022/10/24 04:49:02;;;;;;;14.73;6.30;;;20.60;89.40;;;;;;5067484;28;20190;-72
2022/10/24 04:51:29;;;;;;;14.77;6.63;;;20.60;89.40;;;;;;5084375;28;20699;-72
2022/10/24 04:53:56;;;;;;;16.47;8.47;;;20.60;89.60;;;;;;5075338;28;20588;-73
2022/10/24 04:56:25;;;;;;;12.37;7.37;;;20.60;89.70;;;;;;5058551;28;20202;-73
2022/10/24 04:58:53;;;;;;;10.97;6.37;;;20.50;89.70;;;;;;5078540;28;20182;-73
2022/10/24 05:01:20;;;;;;;14.17;5.73;;;20.60;89.40;;;;;;5074696;28;20300;-73
2022/10/24 05:03:47;;;;;;;16.83;6.20;;;20.60;88.80;;;;;;5076831;28;20236;-75
2022/10/24 05:06:15;;;;;;;11.87;6.10;;;20.60;89.00;;;;;;5079558;28;20202;-72
2022/10/24 05:08:42;;;;;;;16.83;5.53;;;20.80;88.60;;;;;;5077889;28;20187;-74
2022/10/24 05:11:10;;;;;;;11.77;5.17;;;20.90;87.60;;;;;;5076965;28;20190;-74
2022/10/24 05:13:38;;;;;;;19.77;5.07;;;20.90;88.00;;;;;;5083128;28;20178;-74
2022/10/24 05:16:06;;;;;;;13.20;4.93;;;21.20;87.40;;;;;;5072887;28;20194;-76
2022/10/24 05:18:33;;;;;;;15.93;4.87;;;21.30;86.70;;;;;;5074021;28;20240;-74
2022/10/24 05:21:01;;;;;;;13.47;4.57;;;21.30;86.80;;;;;;5079476;28;20243;-77
2022/10/24 05:23:28;;;;;;;12.13;4.63;;;21.60;86.80;;;;;;5073508;28;20260;-73
2022/10/24 05:25:55;;;;;;;22.87;10.23;;;21.80;85.80;;;;;;5075948;28;20257;-72
2022/10/24 05:28:23;;;;;;;13.37;4.70;;;21.80;86.00;;;;;;5081936;28;20202;-73
2022/10/24 05:30:50;;;;;;;8.43;3.30;;;22.00;85.60;;;;;;5073453;28;20178;-77
2022/10/24 05:33:17;;;;;;;10.43;3.80;;;21.80;85.30;;;;;;5078693;28;20606;-74
2022/10/24 05:35:45;;;;;;;9.53;3.03;;;21.60;86.20;;;;;;5078428;28;20258;-73
2022/10/24 05:38:12;;;;;;;5.73;3.00;;;21.50;86.30;;;;;;5088702;28;20184;-75
2022/10/24 05:40:39;;;;;;;8.43;3.07;;;21.50;86.10;;;;;;5084014;28;20194;-72
2022/10/24 05:43:08;;;;;;;11.77;3.40;;;21.40;86.70;;;;;;5081000;28;20263;-73
2022/10/24 05:45:35;;;;;;;7.17;3.30;;;21.30;86.90;;;;;;5078888;28;20229;-71
2022/10/24 05:48:03;;;;;;;6.33;4.13;;;21.20;87.50;;;;;;5081544;28;20183;-71
2022/10/24 05:50:30;;;;;;;5.40;2.87;;;21.20;87.40;;;;;;5078502;28;20187;-75
2022/10/24 05:52:57;;;;;;;5.43;3.03;;;21.30;87.20;;;;;;5076646;28;20197;-76
2022/10/24 05:55:25;;;;;;;8.67;3.07;;;21.20;86.60;;;;;;5082307;28;20193;-73
2022/10/24 05:57:52;;;;;;;6.23;2.83;;;21.20;86.50;;;;;;5087565;28;20183;-73
2022/10/24 06:00:20;;;;;;;6.07;3.27;;;21.20;86.90;;;;;;5073975;28;20524;-77
2022/10/24 06:02:48;;;;;;;6.03;3.00;;;21.60;86.50;;;;;;5092097;28;20179;-77
2022/10/24 06:05:15;;;;;;;8.07;3.03;;;21.80;86.20;;;;;;5073777;28;20237;-73
2022/10/24 06:07:42;;;;;;;5.13;2.80;;;21.80;85.80;;;;;;5074635;28;20184;-72
2022/10/24 06:10:11;;;;;;;14.63;3.10;;;21.90;85.50;;;;;;5075465;28;20641;-72
2022/10/24 06:12:40;;;;;;;5.07;2.73;;;22.40;84.20;;;;;;5073568;28;20210;-74
2022/10/24 06:15:09;;;;;;;7.17;2.57;;;22.70;82.90;;;;;;5074226;28;20191;-76
2022/10/24 06:17:36;;;;;;;7.90;2.53;;;22.60;82.80;;;;;;5075229;28;20581;-75
2022/10/24 06:20:04;;;;;;;8.40;2.30;;;22.50;82.70;;;;;;5073656;28;20214;-73
2022/10/24 06:22:31;;;;;;;7.50;2.73;;;22.20;83.60;;;;;;5063479;28;20625;-74
2022/10/24 06:24:59;;;;;;;7.57;3.43;;;22.10;83.70;;;;;;5074940;28;20548;-78
2022/10/24 06:27:26;;;;;;;6.40;3.33;;;22.00;83.70;;;;;;5074786;28;20645;-77
2022/10/24 06:29:53;;;;;;;8.60;3.57;;;21.90;83.90;;;;;;5057050;28;20261;-72
2022/10/24 06:32:21;;;;;;;6.27;2.83;;;21.90;83.90;;;;;;5074802;28;20645;-71
2022/10/24 06:34:49;;;;;;;3.60;2.73;;;21.90;84.00;;;;;;5072110;28;20191;-73
2022/10/24 06:37:16;;;;;;;8.07;2.70;;;21.80;84.30;;;;;;5074343;28;20207;-72
2022/10/24 06:39:44;;;;;;;3.57;2.57;;;21.70;84.40;;;;;;5074939;28;20180;-72
2022/10/24 06:42:11;;;;;;;4.23;2.40;;;21.60;84.90;;;;;;5074027;28;20294;-73
2022/10/24 06:44:38;;;;;;;5.67;2.90;;;21.70;85.20;;;;;;5074680;28;20264;-73
2022/10/24 06:47:06;;;;;;;6.80;3.00;;;21.70;84.70;;;;;;5074410;28;20183;-73
2022/10/24 06:49:34;;;;;;;5.33;2.77;;;21.50;85.40;;;;;;5073892;28;20186;-71
2022/10/24 06:52:01;;;;;;;5.37;2.67;;;21.50;85.70;;;;;;5074980;28;20183;-71
2022/10/24 06:54:29;;;;;;;5.67;2.63;;;21.50;85.50;;;;;;5074367;28;20179;-72
2022/10/24 06:56:57;;;;;;;7.00;3.00;;;21.40;85.50;;;;;;5073970;28;20198;-71
2022/10/24 06:59:24;;;;;;;6.17;2.53;;;21.30;85.80;;;;;;5089967;28;20199;-72
2022/10/24 07:01:52;;;;;;;8.17;3.23;;;21.20;86.20;;;;;;5068203;28;20191;-70
2022/10/24 07:04:19;;;;;;;11.77;3.60;;;21.20;86.50;;;;;;5073962;28;20278;-72
2022/10/24 07:06:46;;;;;;;9.80;3.87;;;21.20;86.70;;;;;;5073810;28;20210;-72
2022/10/24 07:09:14;;;;;;;6.30;3.67;;;21.10;86.90;;;;;;5071303;28;20199;-72
2022/10/24 07:11:41;;;;;;;8.10;3.50;;;21.00;87.10;;;;;;5073690;28;20766;-75
2022/10/24 07:14:09;;;;;;;10.27;5.90;;;20.80;87.00;;;;;;5073268;28;20593;-75
2022/10/24 07:16:37;;;;;;;6.23;3.73;;;20.70;87.10;;;;;;5061613;28;20276;-76
2022/10/24 07:19:05;;;;;;;13.10;4.17;;;20.50;87.30;;;;;;5055953;28;20271;-73
2022/10/24 07:21:33;;;;;;;7.77;2.97;;;20.40;87.60;;;;;;5072295;28;20656;-72
2022/10/24 07:24:01;;;;;;;6.67;3.33;;;20.30;88.00;;;;;;5071318;28;20175;-72
2022/10/24 07:26:30;;;;;;;11.63;3.93;;;20.30;88.20;;;;;;5072987;28;20229;-71
2022/10/24 07:29:00;;;;;;;9.10;3.77;;;20.20;88.30;;;;;;5073478;28;20189;-73
2022/10/24 07:31:31;;;;;;;6.90;4.20;;;20.20;88.60;;;;;;5073473;28;20209;-72
2022/10/24 07:34:00;;;;;;;11.17;4.13;;;20.10;88.90;;;;;;5073783;28;20181;-73
2022/10/24 07:36:29;;;;;;;7.27;5.27;;;20.00;89.00;;;;;;5073560;28;20179;-73
2022/10/24 07:38:58;;;;;;;6.67;4.03;;;19.90;89.00;;;;;;5073366;28;20684;-73
2022/10/24 07:41:27;;;;;;;5.07;4.50;;;19.90;89.30;;;;;;5073695;28;20203;-72
2022/10/24 07:43:56;;;;;;;5.07;4.30;;;19.90;89.50;;;;;;5073509;28;20715;-73
2022/10/24 07:46:23;;;;;;;11.97;5.27;;;19.80;89.70;;;;;;5073572;28;20191;-73
2022/10/24 07:48:51;;;;;;;12.20;5.63;;;19.80;89.90;;;;;;5073430;28;20176;-73
2022/10/24 07:51:20;;;;;;;17.00;6.90;;;19.60;90.20;;;;;;5072584;28;20187;-73
2022/10/24 07:53:48;;;;;;;12.60;6.87;;;19.50;90.70;;;;;;5055171;28;20179;-72
2022/10/24 07:56:17;;;;;;;15.90;7.07;;;19.40;90.80;;;;;;5069815;28;20184;-74
2022/10/24 07:58:46;;;;;;;11.73;7.77;;;19.40;90.90;;;;;;5072582;28;20225;-75
2022/10/24 08:01:22;;;;;;;12.83;8.20;;;19.30;90.90;;;;;;5069964;28;20179;-73
2022/10/24 08:03:49;;;;;;;15.13;8.10;;;19.30;90.90;;;;;;5072651;28;20179;-74
2022/10/24 08:06:19;;;;;;;15.57;8.67;;;19.30;90.90;;;;;;5071490;28;20186;-72
2022/10/24 08:08:47;;;;;;;14.27;8.13;;;19.30;90.90;;;;;;5072672;28;20546;-74
2022/10/24 08:11:18;;;;;;;18.87;9.60;;;19.30;91.00;;;;;;5073116;28;20664;-74
2022/10/24 08:13:45;;;;;;;14.33;7.60;;;19.30;91.00;;;;;;5072041;28;20175;-74
2022/10/24 08:16:15;;;;;;;13.53;8.10;;;19.30;91.00;;;;;;5072460;28;20178;-77
2022/10/24 08:18:43;;;;;;;15.43;8.20;;;19.30;90.80;;;;;;5069979;28;20179;-74
2022/10/24 08:21:13;;;;;;;14.07;7.50;;;19.20;90.80;;;;;;5069855;28;20236;-77
2022/10/24 08:23:43;;;;;;;11.53;7.03;;;19.20;90.80;;;;;;5070272;28;20178;-81
2022/10/24 08:26:14;;;;;;;20.07;8.90;;;19.20;90.80;;;;;;5070899;28;20572;-79
2022/10/24 08:28:43;;;;;;;16.47;9.47;;;19.20;90.80;;;;;;5070926;28;20616;-78
2022/10/24 08:31:16;;;;;;;15.43;10.57;;;19.20;90.80;;;;;;5069316;28;20214;-76
2022/10/24 08:33:44;;;;;;;15.00;10.03;;;19.20;90.70;;;;;;5069751;28;20179;-79
2022/10/24 08:36:30;;;;;;;13.90;11.40;;;19.20;90.80;;;;;;5070685;28;20693;-74
2022/10/24 08:38:57;;;;;;;18.00;11.40;;;19.20;90.90;;;;;;5067553;28;20254;-74
2022/10/24 08:41:27;;;;;;;23.47;10.70;;;19.20;90.90;;;;;;5058559;28;20211;-74
2022/10/24 08:43:58;;;;;;;12.83;10.77;;;19.20;90.80;;;;;;5065765;28;20329;-75
2022/10/24 08:47:15;;;;;;;23.10;10.67;;;19.20;90.70;;;;;;5070318;28;20183;-80
2022/10/24 08:49:54;;;;;;;14.50;10.83;;;19.20;90.80;;;;;;5031555;28;20646;-73
2022/10/24 08:52:44;;;;;;;12.83;10.73;;;19.30;90.80;;;;;;5027125;28;20685;-79
2022/10/24 08:55:27;;;;;;;16.53;10.20;;;19.20;90.60;;;;;;5060072;28;20210;-76
2022/10/24 08:57:59;;;;;;;16.40;11.27;;;19.20;90.70;;;;;;5062799;28;20206;-72
2022/10/24 09:00:36;;;;;;;15.47;11.00;;;19.20;90.70;;;;;;5071284;28;20290;-74
2022/10/24 09:03:21;;;;;;;14.47;10.33;;;19.20;90.60;;;;;;5059247;28;20194;-73
2022/10/24 09:05:56;;;;;;;18.50;10.10;;;19.20;90.60;;;;;;5052195;28;20213;-73
2022/10/24 09:09:11;;;;;;;14.03;9.43;;;19.20;90.60;;;;;;5073070;28;20183;-75
2022/10/24 09:11:53;;;;;;;18.93;10.70;;;19.20;90.60;;;;;;5009618;28;20220;-76
2022/10/24 09:14:33;;;;;;;20.73;10.77;;;19.20;90.70;;;;;;5066451;28;20617;-78
2022/10/24 09:17:24;;;;;;;13.00;10.37;;;19.20;90.70;;;;;;5076033;28;20174;-74
2022/10/24 09:20:17;;;;;;;14.37;9.90;;;19.20;90.70;;;;;;5070924;28;20214;-73
2022/10/24 09:22:45;;;;;;;16.57;9.97;;;19.10;90.70;;;;;;5069985;28;20783;-77
2022/10/24 09:25:16;;;;;;;17.47;9.40;;;19.10;90.60;;;;;;5073678;28;20211;-73
2022/10/24 09:27:44;;;;;;;14.37;9.20;;;19.10;90.60;;;;;;5066923;28;20172;-73
2022/10/24 09:30:24;;;;;;;14.87;8.43;;;19.10;90.60;;;;;;5073906;28;20219;-73
2022/10/24 09:32:53;;;;;;;15.00;8.43;;;19.00;90.60;;;;;;5075649;28;20489;-75
2022/10/24 09:35:24;;;;;;;15.50;8.13;;;19.00;90.60;;;;;;5075027;28;20186;-72
2022/10/24 09:37:57;;;;;;;16.03;8.33;;;19.00;90.60;;;;;;5075457;28;20175;-72
2022/10/24 09:40:33;;;;;;;10.90;7.90;;;18.90;90.60;;;;;;5071417;28;20186;-73
2022/10/24 09:43:21;;;;;;;11.97;7.73;;;18.90;90.80;;;;;;5075707;28;20715;-74
2022/10/24 09:45:51;;;;;;;13.03;8.00;;;18.90;90.80;;;;;;5075586;28;20575;-74
2022/10/24 09:48:55;;;;;;;16.17;8.20;;;19.00;90.90;;;;;;5074317;28;20228;-74
2022/10/24 09:51:31;;;;;;;10.90;7.83;;;18.90;90.80;;;;;;5075617;28;20183;-73
2022/10/24 09:54:22;;;;;;;13.77;8.77;;;18.90;90.80;;;;;;5075775;28;20206;-73
2022/10/24 09:56:57;;;;;;;9.93;8.00;;;18.80;90.80;;;;;;5066174;28;20237;-72
2022/10/24 09:59:45;;;;;;;11.43;8.77;;;18.80;90.80;;;;;;5075528;28;20178;-73
2022/10/24 10:02:35;;;;;;;13.33;8.63;;;18.80;90.90;;;;;;5072495;28;20750;-74
2022/10/24 10:05:02;;;;;;;13.50;8.63;;;18.80;90.90;;;;;;5057197;28;20218;-73
2022/10/24 10:07:36;;;;;;;14.60;8.30;;;18.80;90.90;;;;;;5073782;28;20171;-73
2022/10/24 10:10:26;;;;;;;15.90;8.60;;;18.80;90.90;;;;;;5074994;28;20188;-73
2022/10/24 10:13:23;;;;;;;14.73;8.77;;;18.80;90.90;;;;;;5074682;28;20508;-75
2022/10/24 10:16:00;;;;;;;15.67;8.97;;;18.80;91.00;;;;;;5074545;28;20190;-73
2022/10/24 10:19:04;;;;;;;12.53;8.70;;;18.80;91.10;;;;;;5074493;28;20201;-73
2022/10/24 10:21:54;;;;;;;14.57;9.10;;;18.80;91.10;;;;;;5051045;28;20201;-73
2022/10/24 10:24:38;;;;;;;14.67;9.80;;;18.80;91.10;;;;;;5073871;28;20217;-73
2022/10/24 10:27:31;;;;;;;11.77;9.63;;;18.80;91.20;;;;;;5074376;28;20195;-73
2022/10/24 10:30:09;;;;;;;14.57;10.47;;;18.70;91.30;;;;;;5053212;28;20191;-73
2022/10/24 10:32:54;;;;;;;17.80;9.73;;;18.80;91.30;;;;;;5074303;28;20178;-74
2022/10/24 10:35:21;;;;;;;17.30;10.40;;;18.80;91.30;;;;;;5074357;28;20183;-74
2022/10/24 10:38:07;;;;;;;15.57;9.93;;;18.80;91.30;;;;;;5075267;28;20220;-73
2022/10/24 10:40:40;;;;;;;15.07;10.33;;;18.80;91.30;;;;;;5061962;28;20178;-73
2022/10/24 10:43:10;;;;;;;13.13;9.60;;;18.80;91.30;;;;;;5074129;28;20662;-73
2022/10/24 10:45:47;;;;;;;12.43;9.80;;;18.80;91.30;;;;;;5074100;28;20238;-73
2022/10/24 10:48:34;;;;;;;14.87;11.17;;;18.80;91.30;;;;;;5055345;28;20581;-73
2022/10/24 10:51:26;;;;;;;12.73;10.70;;;18.90;91.40;;;;;;5074553;28;20566;-74
2022/10/24 10:54:00;;;;;;;14.70;12.70;;;18.80;91.50;;;;;;5073638;28;20236;-73
2022/10/24 10:56:50;;;;;;;16.67;11.43;;;18.90;91.50;;;;;;5073935;28;20292;-72
2022/10/24 10:59:35;;;;;;;13.20;11.93;;;18.90;91.70;;;;;;5073891;28;20299;-72
2022/10/24 11:02:33;;;;;;;16.83;12.90;;;18.90;91.80;;;;;;5072701;28;20651;-71
2022/10/24 11:05:26;;;;;;;14.00;12.80;;;18.80;92.00;;;;;;5073969;28;20215;-72
2022/10/24 11:08:10;;;;;;;12.93;11.60;;;18.80;92.00;;;;;;5074475;28;20176;-72
2022/10/24 11:10:48;;;;;;;13.87;10.47;;;18.80;92.10;;;;;;5073996;28;20183;-72
2022/10/24 11:13:20;;;;;;;13.93;12.53;;;18.80;92.20;;;;;;5073117;28;20675;-72
2022/10/24 11:15:52;;;;;;;16.07;12.87;;;18.80;92.30;;;;;;5060373;28;20174;-72
2022/10/24 11:18:39;;;;;;;16.93;13.30;;;18.80;92.40;;;;;;5073507;28;20176;-72
2022/10/24 11:21:12;;;;;;;15.13;13.60;;;18.80;92.50;;;;;;5073992;28;20210;-72
2022/10/24 11:23:49;;;;;;;19.37;13.30;;;18.70;92.50;;;;;;5073800;28;20649;-72
2022/10/24 11:26:42;;;;;;;19.67;13.80;;;18.70;92.60;;;;;;5073777;28;20219;-72
2022/10/24 11:29:16;;;;;;;16.10;14.43;;;18.70;92.60;;;;;;5072729;28;20209;-72
2022/10/24 11:31:51;;;;;;;16.70;15.27;;;18.70;92.60;;;;;;5073705;28;20185;-72
2022/10/24 11:34:31;;;;;;;15.37;13.43;;;18.70;92.80;;;;;;5073293;28;20174;-72
2022/10/24 11:37:07;;;;;;;19.40;15.03;;;18.70;92.80;;;;;;5073932;28;20170;-72
2022/10/24 11:39:50;;;;;;;19.10;15.53;;;18.70;92.80;;;;;;5073771;28;20655;-73
2022/10/24 11:42:45;;;;;;;17.70;15.53;;;18.70;93.00;;;;;;5060986;28;20234;-73
2022/10/24 11:45:15;;;;;;;18.33;15.33;;;18.70;92.90;;;;;;5073090;28;20215;-72
2022/10/24 11:48:13;;;;;;;19.00;17.03;;;18.70;92.90;;;;;;5072179;28;20262;-72
2022/10/24 11:50:49;;;;;;;22.33;17.90;;;18.70;92.90;;;;;;5073093;28;20214;-73
2022/10/24 11:53:19;;;;;;;20.73;18.63;;;18.70;92.90;;;;;;5073000;28;20574;-73
2022/10/24 11:55:55;;;;;;;22.07;19.17;;;18.70;92.90;;;;;;5063655;28;20183;-72
2022/10/24 11:58:26;;;;;;;19.83;17.07;;;18.70;93.00;;;;;;5070754;28;20182;-72
2022/10/24 12:01:17;;;;;;;17.87;16.23;;;18.80;93.10;;;;;;5073374;28;20281;-73
2022/10/24 12:04:10;;;;;;;19.67;17.70;;;18.70;93.00;;;;;;5071064;28;20523;-73
2022/10/24 12:06:38;;;;;;;18.87;17.07;;;18.80;93.00;;;;;;5072408;28;20668;-73
2022/10/24 12:09:11;;;;;;;20.87;17.57;;;18.70;93.00;;;;;;5067111;28;20676;-73
2022/10/24 12:11:54;;;;;;;21.83;18.20;;;18.80;93.10;;;;;;5068203;28;20191;-73
2022/10/24 12:14:27;;;;;;;20.57;17.30;;;18.80;93.10;;;;;;5072964;28;20194;-72
2022/10/24 12:17:29;;;;;;;21.27;16.87;;;18.80;93.10;;;;;;5072578;28;20531;-72
2022/10/24 12:19:56;;;;;;;20.23;18.33;;;18.80;93.10;;;;;;5073077;28;20266;-72
2022/10/24 12:22:39;;;;;;;20.00;18.23;;;18.70;93.10;;;;;;5072895;28;20675;-72
2022/10/24 12:25:27;;;;;;;19.57;17.50;;;18.80;93.10;;;;;;5072409;28;20220;-73
2022/10/24 12:28:03;;;;;;;20.50;18.37;;;18.80;93.20;;;;;;5072937;28;20182;-73
2022/10/24 12:30:34;;;;;;;19.40;17.07;;;18.70;93.10;;;;;;5072804;28;20183;-72
2022/10/24 12:33:21;;;;;;;21.17;19.37;;;18.60;93.10;;;;;;5072044;28;20175;-72
2022/10/24 12:35:55;;;;;;;21.73;19.33;;;18.70;93.20;;;;;;5070540;28;20212;-72
2022/10/24 12:38:28;;;;;;;20.73;18.70;;;18.70;93.20;;;;;;5072837;28;20206;-73
2022/10/24 12:41:08;;;;;;;20.30;18.33;;;18.60;93.10;;;;;;5072704;28;20305;-72
2022/10/24 12:43:43;;;;;;;22.30;20.20;;;18.50;93.10;;;;;;5072004;28;20219;-73
2022/10/24 12:46:19;;;;;;;23.80;21.70;;;18.50;93.20;;;;;;5072895;28;20221;-73
2022/10/24 12:48:58;;;;;;;22.93;20.60;;;18.50;93.20;;;;;;5064301;28;20255;-73
2022/10/24 12:51:30;;;;;;;26.33;24.33;;;18.50;93.30;;;;;;5070268;28;20706;-73
2022/10/24 12:54:16;;;;;;;24.43;22.50;;;18.50;93.40;;;;;;5070520;28;20175;-73
2022/10/24 12:56:50;;;;;;;24.77;22.50;;;18.50;93.40;;;;;;5074183;28;20244;-73
2022/10/24 12:59:34;;;;;;;27.27;24.80;;;18.50;93.50;;;;;;5069982;28;20175;-73
2022/10/24 13:02:39;;;;;;;28.97;26.47;;;18.50;93.50;;;;;;5060891;28;20262;-73
2022/10/24 13:05:33;;;;;;;29.53;26.93;;;18.60;93.50;;;;;;5057497;28;20249;-73
2022/10/24 13:08:21;;;;;;;30.50;27.80;;;18.60;93.50;;;;;;5072364;28;20178;-73